sensor_id;sensor_type;location;lat;lon;timestamp;temperature;humidity
3055;DHT22;1537;52.018;8.542;2022-07-23T00:00:08;17.00;99.90
3055;DHT22;1537;52.018;8.542;2022-07-23T00:03:32;17.00;99.90
3055;DHT22;1537;52.018;8.542;2022-07-23T00:06:55;17.10;99.90
3055;DHT22;1537;52.018;8.542;2022-07-23T00:10:20;17.10;99.90
3055;DHT22;1537;52.018;8.542;2022-07-23T00:13:44;17.10;99.90
3055;DHT22;1537;52.018;8.542;2022-07-23T00:17:09;17.20;99.90
3055;DHT22;1537;52.018;8.542;2022-07-23T00:20:33;17.30;99.90
3055;DHT22;1537;52.018;8.542;2022-07-23T00:23:57;17.40;99.90
3055;DHT22;1537;52.018;8.542;2022-07-23T00:27:21;17.40;99.90
3055;DHT22;1537;52.018;8.542;2022-07-23T00:30:44;17.30;99.90
3055;DHT22;1537;52.018;8.542;2022-07-23T00:34:10;17.40;99.90
3055;DHT22;1537;52.018;8.542;2022-07-23T00:37:34;17.40;99.90
3055;DHT22;1537;52.018;8.542;2022-07-23T00:40:57;17.40;99.90
3055;DHT22;1537;52.018;8.542;2022-07-23T00:44:23;17.50;99.90
3055;DHT22;1537;52.018;8.542;2022-07-23T00:47:47;17.50;99.90
3055;DHT22;1537;52.018;8.542;2022-07-23T00:51:12;17.60;99.90
3055;DHT22;1537;52.018;8.542;2022-07-23T00:54:39;17.60;99.90
3055;DHT22;1537;52.018;8.542;2022-07-23T00:58:03;17.60;99.90
3055;DHT22;1537;52.018;8.542;2022-07-23T01:01:27;17.70;99.90
3055;DHT22;1537;52.018;8.542;2022-07-23T01:04:51;17.60;99.90
3055;DHT22;1537;52.018;8.542;2022-07-23T01:08:17;17.60;99.90
3055;DHT22;1537;52.018;8.542;2022-07-23T01:11:43;17.60;99.90
3055;DHT22;1537;52.018;8.542;2022-07-23T01:15:07;17.60;99.90
3055;DHT22;1537;52.018;8.542;2022-07-23T01:18:31;17.60;99.90
3055;DHT22;1537;52.018;8.542;2022-07-23T01:21:57;17.60;99.90
3055;DHT22;1537;52.018;8.542;2022-07-23T01:25:24;17.60;99.90
3055;DHT22;1537;52.018;8.542;2022-07-23T01:28:54;17.60;99.90
3055;DHT22;1537;52.018;8.542;2022-07-23T01:32:18;17.70;99.90
3055;DHT22;1537;52.018;8.542;2022-07-23T01:35:43;17.60;99.90
3055;DHT22;1537;52.018;8.542;2022-07-23T01:39:12;17.60;99.90
3055;DHT22;1537;52.018;8.542;2022-07-23T01:42:39;17.50;99.90
3055;DHT22;1537;52.018;8.542;2022-07-23T01:46:05;17.60;99.90
3055;DHT22;1537;52.018;8.542;2022-07-23T01:49:35;17.60;99.90
3055;DHT22;1537;52.018;8.542;2022-07-23T01:53:17;17.60;99.90
3055;DHT22;1537;52.018;8.542;2022-07-23T01:56:41;17.40;99.90
3055;DHT22;1537;52.018;8.542;2022-07-23T02:00:08;17.40;99.90
3055;DHT22;1537;52.018;8.542;2022-07-23T02:03:34;17.30;99.90
3055;DHT22;1537;52.018;8.542;2022-07-23T02:06:58;17.10;99.90
3055;DHT22;1537;52.018;8.542;2022-07-23T02:10:22;17.00;99.90
3055;DHT22;1537;52.018;8.542;2022-07-23T02:13:46;17.00;99.90
3055;DHT22;1537;52.018;8.542;2022-07-23T02:17:11;17.00;99.90
3055;DHT22;1537;52.018;8.542;2022-07-23T02:20:35;17.00;99.90
3055;DHT22;1537;52.018;8.542;2022-07-23T02:24:03;16.60;99.90
3055;DHT22;1537;52.018;8.542;2022-07-23T02:27:27;16.20;99.90
3055;DHT22;1537;52.018;8.542;2022-07-23T02:30:51;16.30;99.90
3055;DHT22;1537;52.018;8.542;2022-07-23T02:34:16;16.20;99.90
3055;DHT22;1537;52.018;8.542;2022-07-23T02:37:40;16.20;99.90
3055;DHT22;1537;52.018;8.542;2022-07-23T02:41:04;16.20;99.90
3055;DHT22;1537;52.018;8.542;2022-07-23T02:44:28;16.40;99.90
3055;DHT22;1537;52.018;8.542;2022-07-23T02:47:51;16.50;99.90
3055;DHT22;1537;52.018;8.542;2022-07-23T02:51:17;16.40;99.90
3055;DHT22;1537;52.018;8.542;2022-07-23T02:54:48;16.30;99.90
3055;DHT22;1537;52.018;8.542;2022-07-23T02:58:11;16.40;99.90
3055;DHT22;1537;52.018;8.542;2022-07-23T03:01:35;16.50;99.90
3055;DHT22;1537;52.018;8.542;2022-07-23T03:04:59;16.50;99.90
3055;DHT22;1537;52.018;8.542;2022-07-23T03:08:24;16.60;99.90
3055;DHT22;1537;52.018;8.542;2022-07-23T03:11:48;16.60;99.90
3055;DHT22;1537;52.018;8.542;2022-07-23T03:15:12;16.50;99.90
3055;DHT22;1537;52.018;8.542;2022-07-23T03:18:36;16.60;99.90
3055;DHT22;1537;52.018;8.542;2022-07-23T03:22:02;16.60;99.90
3055;DHT22;1537;52.018;8.542;2022-07-23T03:25:28;16.60;99.90
3055;DHT22;1537;52.018;8.542;2022-07-23T03:28:51;16.50;99.90
3055;DHT22;1537;52.018;8.542;2022-07-23T03:32:17;16.50;99.90
3055;DHT22;1537;52.018;8.542;2022-07-23T03:35:41;16.50;99.90
3055;DHT22;1537;52.018;8.542;2022-07-23T03:39:16;16.50;99.90
3055;DHT22;1537;52.018;8.542;2022-07-23T03:42:41;16.40;99.90
3055;DHT22;1537;52.018;8.542;2022-07-23T03:46:05;16.30;99.90
3055;DHT22;1537;52.018;8.542;2022-07-23T03:49:29;16.40;99.90
3055;DHT22;1537;52.018;8.542;2022-07-23T03:52:53;16.30;99.90
3055;DHT22;1537;52.018;8.542;2022-07-23T03:56:17;16.30;99.90
3055;DHT22;1537;52.018;8.542;2022-07-23T03:59:42;16.20;99.90
3055;DHT22;1537;52.018;8.542;2022-07-23T04:03:07;16.20;99.90
3055;DHT22;1537;52.018;8.542;2022-07-23T04:06:33;16.10;99.90
3055;DHT22;1537;52.018;8.542;2022-07-23T04:09:57;16.10;99.90
3055;DHT22;1537;52.018;8.542;2022-07-23T04:13:20;16.10;99.90
3055;DHT22;1537;52.018;8.542;2022-07-23T04:16:45;16.10;99.90
3055;DHT22;1537;52.018;8.542;2022-07-23T04:20:10;16.10;99.90
3055;DHT22;1537;52.018;8.542;2022-07-23T04:23:41;16.10;99.90
3055;DHT22;1537;52.018;8.542;2022-07-23T04:27:06;16.10;99.90
3055;DHT22;1537;52.018;8.542;2022-07-23T04:30:30;16.30;99.90
3055;DHT22;1537;52.018;8.542;2022-07-23T04:33:55;16.30;99.90
3055;DHT22;1537;52.018;8.542;2022-07-23T04:37:19;16.00;99.90
3055;DHT22;1537;52.018;8.542;2022-07-23T04:40:43;15.90;99.90
3055;DHT22;1537;52.018;8.542;2022-07-23T04:44:07;15.90;99.90
3055;DHT22;1537;52.018;8.542;2022-07-23T04:47:31;16.20;99.90
3055;DHT22;1537;52.018;8.542;2022-07-23T04:50:57;16.40;99.90
3055;DHT22;1537;52.018;8.542;2022-07-23T04:54:24;16.50;99.90
3055;DHT22;1537;52.018;8.542;2022-07-23T04:57:48;16.30;99.90
3055;DHT22;1537;52.018;8.542;2022-07-23T05:01:12;16.70;99.90
3055;DHT22;1537;52.018;8.542;2022-07-23T05:04:35;17.00;99.90
3055;DHT22;1537;52.018;8.542;2022-07-23T05:08:02;17.40;99.90
3055;DHT22;1537;52.018;8.542;2022-07-23T05:11:26;17.60;99.90
3055;DHT22;1537;52.018;8.542;2022-07-23T05:14:51;17.90;99.90
3055;DHT22;1537;52.018;8.542;2022-07-23T05:18:16;18.20;99.90
3055;DHT22;1537;52.018;8.542;2022-07-23T05:21:40;19.20;99.90
3055;DHT22;1537;52.018;8.542;2022-07-23T05:25:06;20.70;99.90
3055;DHT22;1537;52.018;8.542;2022-07-23T05:28:30;22.10;99.90
3055;DHT22;1537;52.018;8.542;2022-07-23T05:31:54;23.10;99.90
3055;DHT22;1537;52.018;8.542;2022-07-23T05:35:18;24.20;99.90
3055;DHT22;1537;52.018;8.542;2022-07-23T05:38:56;25.40;99.90
3055;DHT22;1537;52.018;8.542;2022-07-23T05:42:22;26.20;99.90
3055;DHT22;1537;52.018;8.542;2022-07-23T05:45:45;27.20;99.90
3055;DHT22;1537;52.018;8.542;2022-07-23T05:49:10;28.00;99.90
3055;DHT22;1537;52.018;8.542;2022-07-23T05:52:52;28.90;99.90
3055;DHT22;1537;52.018;8.542;2022-07-23T05:56:34;29.20;99.90
3055;DHT22;1537;52.018;8.542;2022-07-23T06:00:00;28.30;99.90
3055;DHT22;1537;52.018;8.542;2022-07-23T06:03:35;29.10;99.90
3055;DHT22;1537;52.018;8.542;2022-07-23T06:06:59;30.30;96.00
3055;DHT22;1537;52.018;8.542;2022-07-23T06:10:23;30.90;93.10
3055;DHT22;1537;52.018;8.542;2022-07-23T06:13:46;31.80;87.50
3055;DHT22;1537;52.018;8.542;2022-07-23T06:17:12;32.60;79.10
3055;DHT22;1537;52.018;8.542;2022-07-23T06:20:36;33.00;71.50
3055;DHT22;1537;52.018;8.542;2022-07-23T06:24:00;32.90;65.90
3055;DHT22;1537;52.018;8.542;2022-07-23T06:27:24;33.10;64.30
3055;DHT22;1537;52.018;8.542;2022-07-23T06:30:48;33.50;60.40
3055;DHT22;1537;52.018;8.542;2022-07-23T06:34:13;33.50;57.90
3055;DHT22;1537;52.018;8.542;2022-07-23T06:37:37;33.60;56.70
3055;DHT22;1537;52.018;8.542;2022-07-23T06:41:01;33.80;55.80
3055;DHT22;1537;52.018;8.542;2022-07-23T06:44:25;33.60;56.40
3055;DHT22;1537;52.018;8.542;2022-07-23T06:47:48;33.00;56.40
3055;DHT22;1537;52.018;8.542;2022-07-23T06:51:15;33.50;57.00
3055;DHT22;1537;52.018;8.542;2022-07-23T06:54:38;33.90;54.20
3055;DHT22;1537;52.018;8.542;2022-07-23T06:58:02;33.20;55.90
3055;DHT22;1537;52.018;8.542;2022-07-23T07:01:26;33.40;54.80
3055;DHT22;1537;52.018;8.542;2022-07-23T07:04:50;33.50;54.50
3055;DHT22;1537;52.018;8.542;2022-07-23T07:08:16;34.50;52.50
3055;DHT22;1537;52.018;8.542;2022-07-23T07:11:40;34.70;51.00
3055;DHT22;1537;52.018;8.542;2022-07-23T07:15:04;33.50;51.00
3055;DHT22;1537;52.018;8.542;2022-07-23T07:18:29;31.70;54.80
3055;DHT22;1537;52.018;8.542;2022-07-23T07:21:53;30.30;57.50
3055;DHT22;1537;52.018;8.542;2022-07-23T07:25:18;29.00;62.30
3055;DHT22;1537;52.018;8.542;2022-07-23T07:28:42;27.50;65.40
3055;DHT22;1537;52.018;8.542;2022-07-23T07:32:06;26.50;69.50
3055;DHT22;1537;52.018;8.542;2022-07-23T07:35:30;25.70;76.90
3055;DHT22;1537;52.018;8.542;2022-07-23T07:38:55;25.00;84.50
3055;DHT22;1537;52.018;8.542;2022-07-23T07:42:20;24.60;90.80
3055;DHT22;1537;52.018;8.542;2022-07-23T07:45:44;24.40;94.70
3055;DHT22;1537;52.018;8.542;2022-07-23T07:49:08;24.30;96.20
3055;DHT22;1537;52.018;8.542;2022-07-23T07:52:37;23.30;98.90
3055;DHT22;1537;52.018;8.542;2022-07-23T07:56:01;22.80;99.90
3055;DHT22;1537;52.018;8.542;2022-07-23T07:59:26;22.90;99.90
3055;DHT22;1537;52.018;8.542;2022-07-23T08:02:55;23.10;99.90
3055;DHT22;1537;52.018;8.542;2022-07-23T08:06:25;24.60;99.90
3055;DHT22;1537;52.018;8.542;2022-07-23T08:09:48;26.30;99.90
3055;DHT22;1537;52.018;8.542;2022-07-23T08:13:13;27.00;98.20
3055;DHT22;1537;52.018;8.542;2022-07-23T08:16:39;27.90;94.10
3055;DHT22;1537;52.018;8.542;2022-07-23T08:20:23;30.40;80.80
3055;DHT22;1537;52.018;8.542;2022-07-23T08:23:47;32.90;65.90
3055;DHT22;1537;52.018;8.542;2022-07-23T08:27:11;33.90;57.30
3055;DHT22;1537;52.018;8.542;2022-07-23T08:30:35;35.40;50.80
3055;DHT22;1537;52.018;8.542;2022-07-23T08:34:01;37.20;44.90
3055;DHT22;1537;52.018;8.542;2022-07-23T08:37:26;38.40;40.60
3055;DHT22;1537;52.018;8.542;2022-07-23T08:40:51;38.20;37.50
3055;DHT22;1537;52.018;8.542;2022-07-23T08:44:16;34.40;39.80
3055;DHT22;1537;52.018;8.542;2022-07-23T08:47:40;31.90;45.20
3055;DHT22;1537;52.018;8.542;2022-07-23T08:51:06;30.40;49.50
3055;DHT22;1537;52.018;8.542;2022-07-23T08:54:30;29.60;53.00
3055;DHT22;1537;52.018;8.542;2022-07-23T08:57:54;31.60;50.80
3055;DHT22;1537;52.018;8.542;2022-07-23T09:01:18;32.00;47.40
3055;DHT22;1537;52.018;8.542;2022-07-23T09:04:42;30.30;49.70
3055;DHT22;1537;52.018;8.542;2022-07-23T09:08:10;30.50;49.70
3055;DHT22;1537;52.018;8.542;2022-07-23T09:11:34;30.60;50.70
3055;DHT22;1537;52.018;8.542;2022-07-23T09:15:03;30.20;51.40
3055;DHT22;1537;52.018;8.542;2022-07-23T09:18:29;31.10;51.00
3055;DHT22;1537;52.018;8.542;2022-07-23T09:21:53;34.80;45.70
3055;DHT22;1537;52.018;8.542;2022-07-23T09:25:19;38.40;38.80
3055;DHT22;1537;52.018;8.542;2022-07-23T09:28:50;40.30;34.20
3055;DHT22;1537;52.018;8.542;2022-07-23T09:32:15;37.50;34.80
3055;DHT22;1537;52.018;8.542;2022-07-23T09:35:50;34.00;39.70
3055;DHT22;1537;52.018;8.542;2022-07-23T09:39:15;31.60;44.50
3055;DHT22;1537;52.018;8.542;2022-07-23T09:42:41;31.00;45.20
3055;DHT22;1537;52.018;8.542;2022-07-23T09:46:19;30.30;46.80
3055;DHT22;1537;52.018;8.542;2022-07-23T09:49:58;30.30;48.20
3055;DHT22;1537;52.018;8.542;2022-07-23T09:53:24;30.20;48.90
3055;DHT22;1537;52.018;8.542;2022-07-23T09:56:48;30.10;49.50
3055;DHT22;1537;52.018;8.542;2022-07-23T10:00:14;30.70;47.70
3055;DHT22;1537;52.018;8.542;2022-07-23T10:03:42;29.20;49.80
3055;DHT22;1537;52.018;8.542;2022-07-23T10:07:40;27.90;52.80
3055;DHT22;1537;52.018;8.542;2022-07-23T10:11:23;28.70;51.10
3055;DHT22;1537;52.018;8.542;2022-07-23T10:15:00;31.40;48.90
3055;DHT22;1537;52.018;8.542;2022-07-23T10:18:26;34.00;42.40
3055;DHT22;1537;52.018;8.542;2022-07-23T10:21:53;32.70;43.30
3055;DHT22;1537;52.018;8.542;2022-07-23T10:25:23;31.70;45.00
3055;DHT22;1537;52.018;8.542;2022-07-23T10:29:06;31.80;45.10
3055;DHT22;1537;52.018;8.542;2022-07-23T10:32:39;30.90;44.40
3055;DHT22;1537;52.018;8.542;2022-07-23T10:36:15;30.30;45.80
3055;DHT22;1537;52.018;8.542;2022-07-23T10:39:42;30.00;47.60
3055;DHT22;1537;52.018;8.542;2022-07-23T10:43:13;28.80;49.70
3055;DHT22;1537;52.018;8.542;2022-07-23T10:46:57;28.10;52.30
3055;DHT22;1537;52.018;8.542;2022-07-23T10:50:30;30.00;47.70
3055;DHT22;1537;52.018;8.542;2022-07-23T10:53:58;32.40;44.20
3055;DHT22;1537;52.018;8.542;2022-07-23T10:57:24;34.10;40.20
3055;DHT22;1537;52.018;8.542;2022-07-23T11:00:48;34.30;39.90
3055;DHT22;1537;52.018;8.542;2022-07-23T11:04:12;33.50;40.60
3055;DHT22;1537;52.018;8.542;2022-07-23T11:11:22;30.50;45.30
3055;DHT22;1537;52.018;8.542;2022-07-23T11:14:58;29.50;48.40
3055;DHT22;1537;52.018;8.542;2022-07-23T11:18:54;28.80;49.50
3055;DHT22;1537;52.018;8.542;2022-07-23T11:22:34;28.30;50.80
3055;DHT22;1537;52.018;8.542;2022-07-23T11:25:58;28.00;51.50
3055;DHT22;1537;52.018;8.542;2022-07-23T11:29:46;27.70;51.30
3055;DHT22;1537;52.018;8.542;2022-07-23T11:33:19;27.30;52.10
3055;DHT22;1537;52.018;8.542;2022-07-23T11:36:49;26.90;52.90
3055;DHT22;1537;52.018;8.542;2022-07-23T11:40:15;26.70;53.90
3055;DHT22;1537;52.018;8.542;2022-07-23T11:43:39;26.60;54.20
3055;DHT22;1537;52.018;8.542;2022-07-23T11:47:05;26.50;54.80
3055;DHT22;1537;52.018;8.542;2022-07-23T11:50:30;26.00;55.80
3055;DHT22;1537;52.018;8.542;2022-07-23T11:53:53;26.10;57.30
3055;DHT22;1537;52.018;8.542;2022-07-23T11:57:18;25.90;55.80
3055;DHT22;1537;52.018;8.542;2022-07-23T12:00:42;25.60;56.60
3055;DHT22;1537;52.018;8.542;2022-07-23T12:04:07;25.50;57.10
3055;DHT22;1537;52.018;8.542;2022-07-23T12:07:33;25.40;58.70
3055;DHT22;1537;52.018;8.542;2022-07-23T12:10:57;25.40;58.20
3055;DHT22;1537;52.018;8.542;2022-07-23T12:14:21;25.20;59.00
3055;DHT22;1537;52.018;8.542;2022-07-23T12:17:46;25.40;60.70
3055;DHT22;1537;52.018;8.542;2022-07-23T12:21:14;25.40;60.50
3055;DHT22;1537;52.018;8.542;2022-07-23T12:24:58;25.30;60.60
3055;DHT22;1537;52.018;8.542;2022-07-23T12:28:27;25.20;60.10
3055;DHT22;1537;52.018;8.542;2022-07-23T12:31:51;25.10;60.20
3055;DHT22;1537;52.018;8.542;2022-07-23T12:35:15;25.00;61.10
3055;DHT22;1537;52.018;8.542;2022-07-23T12:38:42;25.00;60.90
3055;DHT22;1537;52.018;8.542;2022-07-23T12:42:11;25.00;62.70
3055;DHT22;1537;52.018;8.542;2022-07-23T12:45:48;25.20;62.30
3055;DHT22;1537;52.018;8.542;2022-07-23T12:49:25;25.20;61.00
3055;DHT22;1537;52.018;8.542;2022-07-23T12:53:02;25.30;62.90
3055;DHT22;1537;52.018;8.542;2022-07-23T12:56:30;25.30;63.00
3055;DHT22;1537;52.018;8.542;2022-07-23T13:00:07;25.30;64.20
3055;DHT22;1537;52.018;8.542;2022-07-23T13:03:34;25.30;63.30
3055;DHT22;1537;52.018;8.542;2022-07-23T13:07:01;25.10;62.90
3055;DHT22;1537;52.018;8.542;2022-07-23T13:10:26;25.10;62.80
3055;DHT22;1537;52.018;8.542;2022-07-23T13:13:52;25.10;62.80
3055;DHT22;1537;52.018;8.542;2022-07-23T13:17:16;25.10;62.30
3055;DHT22;1537;52.018;8.542;2022-07-23T13:20:42;25.10;63.10
3055;DHT22;1537;52.018;8.542;2022-07-23T13:24:10;25.20;63.10
3055;DHT22;1537;52.018;8.542;2022-07-23T13:27:34;25.30;62.20
3055;DHT22;1537;52.018;8.542;2022-07-23T13:31:03;25.30;62.90
3055;DHT22;1537;52.018;8.542;2022-07-23T13:34:27;25.30;64.00
3055;DHT22;1537;52.018;8.542;2022-07-23T13:37:51;25.50;62.60
3055;DHT22;1537;52.018;8.542;2022-07-23T13:41:16;25.70;62.90
3055;DHT22;1537;52.018;8.542;2022-07-23T13:44:40;25.70;62.70
3055;DHT22;1537;52.018;8.542;2022-07-23T13:48:06;25.80;62.50
3055;DHT22;1537;52.018;8.542;2022-07-23T13:51:31;25.80;61.50
3055;DHT22;1537;52.018;8.542;2022-07-23T13:54:55;25.70;61.10
3055;DHT22;1537;52.018;8.542;2022-07-23T13:58:19;25.70;62.30
3055;DHT22;1537;52.018;8.542;2022-07-23T14:01:45;25.80;61.50
3055;DHT22;1537;52.018;8.542;2022-07-23T14:05:31;26.00;62.30
3055;DHT22;1537;52.018;8.542;2022-07-23T14:08:55;26.00;60.70
3055;DHT22;1537;52.018;8.542;2022-07-23T14:12:19;26.10;61.40
3055;DHT22;1537;52.018;8.542;2022-07-23T14:15:45;26.10;61.00
3055;DHT22;1537;52.018;8.542;2022-07-23T14:19:10;26.00;60.10
3055;DHT22;1537;52.018;8.542;2022-07-23T14:22:36;25.70;61.60
3055;DHT22;1537;52.018;8.542;2022-07-23T14:26:00;25.60;62.20
3055;DHT22;1537;52.018;8.542;2022-07-23T14:29:26;25.40;62.40
3055;DHT22;1537;52.018;8.542;2022-07-23T14:32:50;25.50;63.00
3055;DHT22;1537;52.018;8.542;2022-07-23T14:36:14;25.80;63.00
3055;DHT22;1537;52.018;8.542;2022-07-23T14:39:41;25.80;62.10
3055;DHT22;1537;52.018;8.542;2022-07-23T14:43:08;25.90;61.10
3055;DHT22;1537;52.018;8.542;2022-07-23T14:46:33;25.90;62.00
3055;DHT22;1537;52.018;8.542;2022-07-23T14:49:57;25.90;62.70
3055;DHT22;1537;52.018;8.542;2022-07-23T14:53:21;26.00;62.70
3055;DHT22;1537;52.018;8.542;2022-07-23T14:56:48;26.00;61.50
3055;DHT22;1537;52.018;8.542;2022-07-23T15:00:13;26.20;60.10
3055;DHT22;1537;52.018;8.542;2022-07-23T15:03:38;26.10;61.40
3055;DHT22;1537;52.018;8.542;2022-07-23T15:07:04;25.90;63.50
3055;DHT22;1537;52.018;8.542;2022-07-23T15:10:29;26.00;62.30
3055;DHT22;1537;52.018;8.542;2022-07-23T15:13:54;25.80;63.30
3055;DHT22;1537;52.018;8.542;2022-07-23T15:17:21;25.40;64.50
3055;DHT22;1537;52.018;8.542;2022-07-23T15:20:48;25.30;64.70
3055;DHT22;1537;52.018;8.542;2022-07-23T15:24:12;25.20;65.20
3055;DHT22;1537;52.018;8.542;2022-07-23T15:27:36;24.90;67.00
3055;DHT22;1537;52.018;8.542;2022-07-23T15:31:01;24.90;68.30
3055;DHT22;1537;52.018;8.542;2022-07-23T15:34:30;25.10;67.40
3055;DHT22;1537;52.018;8.542;2022-07-23T15:37:54;25.20;67.20
3055;DHT22;1537;52.018;8.542;2022-07-23T15:41:19;25.20;67.40
3055;DHT22;1537;52.018;8.542;2022-07-23T15:44:45;25.00;68.10
3055;DHT22;1537;52.018;8.542;2022-07-23T15:48:12;24.90;68.10
3055;DHT22;1537;52.018;8.542;2022-07-23T15:51:36;24.80;69.40
3055;DHT22;1537;52.018;8.542;2022-07-23T15:54:59;24.70;69.10
3055;DHT22;1537;52.018;8.542;2022-07-23T15:58:23;24.70;69.50
3055;DHT22;1537;52.018;8.542;2022-07-23T16:01:47;24.80;70.10
3055;DHT22;1537;52.018;8.542;2022-07-23T16:05:13;24.90;69.00
3055;DHT22;1537;52.018;8.542;2022-07-23T16:08:36;24.70;70.00
3055;DHT22;1537;52.018;8.542;2022-07-23T16:12:00;24.70;71.10
3055;DHT22;1537;52.018;8.542;2022-07-23T16:15:24;24.80;70.30
3055;DHT22;1537;52.018;8.542;2022-07-23T16:18:48;24.90;71.20
3055;DHT22;1537;52.018;8.542;2022-07-23T16:22:14;24.90;70.60
3055;DHT22;1537;52.018;8.542;2022-07-23T16:25:39;25.00;70.00
3055;DHT22;1537;52.018;8.542;2022-07-23T16:29:02;24.80;70.70
3055;DHT22;1537;52.018;8.542;2022-07-23T16:32:27;24.50;72.00
3055;DHT22;1537;52.018;8.542;2022-07-23T16:35:50;24.30;73.40
3055;DHT22;1537;52.018;8.542;2022-07-23T16:39:16;24.40;74.00
3055;DHT22;1537;52.018;8.542;2022-07-23T16:42:40;24.40;73.90
3055;DHT22;1537;52.018;8.542;2022-07-23T16:46:05;24.40;74.90
3055;DHT22;1537;52.018;8.542;2022-07-23T16:49:29;24.50;74.60
3055;DHT22;1537;52.018;8.542;2022-07-23T16:52:53;24.30;74.70
3055;DHT22;1537;52.018;8.542;2022-07-23T16:56:18;24.20;76.10
3055;DHT22;1537;52.018;8.542;2022-07-23T16:59:42;24.30;76.50
3055;DHT22;1537;52.018;8.542;2022-07-23T17:03:06;24.20;76.20
3055;DHT22;1537;52.018;8.542;2022-07-23T17:06:30;24.20;76.90
3055;DHT22;1537;52.018;8.542;2022-07-23T17:09:55;24.10;79.30
3055;DHT22;1537;52.018;8.542;2022-07-23T17:13:20;24.20;77.70
3055;DHT22;1537;52.018;8.542;2022-07-23T17:16:44;24.10;78.50
3055;DHT22;1537;52.018;8.542;2022-07-23T17:20:09;24.00;78.20
3055;DHT22;1537;52.018;8.542;2022-07-23T17:23:34;23.90;78.30
3055;DHT22;1537;52.018;8.542;2022-07-23T17:26:57;23.80;79.50
3055;DHT22;1537;52.018;8.542;2022-07-23T17:30:29;23.70;80.10
3055;DHT22;1537;52.018;8.542;2022-07-23T17:33:53;23.60;80.90
3055;DHT22;1537;52.018;8.542;2022-07-23T17:37:17;23.50;81.50
3055;DHT22;1537;52.018;8.542;2022-07-23T17:40:40;23.40;82.80
3055;DHT22;1537;52.018;8.542;2022-07-23T17:44:04;23.30;84.00
3055;DHT22;1537;52.018;8.542;2022-07-23T17:47:30;23.40;84.00
3055;DHT22;1537;52.018;8.542;2022-07-23T17:50:54;23.40;84.70
3055;DHT22;1537;52.018;8.542;2022-07-23T17:54:19;23.40;84.80
3055;DHT22;1537;52.018;8.542;2022-07-23T17:57:43;23.30;85.10
3055;DHT22;1537;52.018;8.542;2022-07-23T18:01:06;23.20;86.20
3055;DHT22;1537;52.018;8.542;2022-07-23T18:04:35;23.10;87.70
3055;DHT22;1537;52.018;8.542;2022-07-23T18:08:01;23.10;90.10
3055;DHT22;1537;52.018;8.542;2022-07-23T18:11:25;23.10;90.00
3055;DHT22;1537;52.018;8.542;2022-07-23T18:14:49;23.10;90.80
3055;DHT22;1537;52.018;8.542;2022-07-23T18:18:15;23.20;91.10
3055;DHT22;1537;52.018;8.542;2022-07-23T18:21:40;23.10;91.50
3055;DHT22;1537;52.018;8.542;2022-07-23T18:25:05;23.00;91.60
3055;DHT22;1537;52.018;8.542;2022-07-23T18:28:29;22.90;92.30
3055;DHT22;1537;52.018;8.542;2022-07-23T18:31:55;22.90;93.10
3055;DHT22;1537;52.018;8.542;2022-07-23T18:35:19;22.90;93.40
3055;DHT22;1537;52.018;8.542;2022-07-23T18:38:46;22.80;94.00
3055;DHT22;1537;52.018;8.542;2022-07-23T18:42:17;22.70;94.60
3055;DHT22;1537;52.018;8.542;2022-07-23T18:45:43;22.60;95.80
3055;DHT22;1537;52.018;8.542;2022-07-23T18:49:07;22.60;97.00
3055;DHT22;1537;52.018;8.542;2022-07-23T18:52:35;22.60;98.20
3055;DHT22;1537;52.018;8.542;2022-07-23T18:56:01;22.50;97.70
3055;DHT22;1537;52.018;8.542;2022-07-23T18:59:25;22.30;98.10
3055;DHT22;1537;52.018;8.542;2022-07-23T19:02:49;22.30;99.20
3055;DHT22;1537;52.018;8.542;2022-07-23T19:06:15;22.20;99.10
3055;DHT22;1537;52.018;8.542;2022-07-23T19:09:40;22.20;99.90
3055;DHT22;1537;52.018;8.542;2022-07-23T19:13:06;22.20;99.90
3055;DHT22;1537;52.018;8.542;2022-07-23T19:16:30;22.10;99.90
3055;DHT22;1537;52.018;8.542;2022-07-23T19:19:55;22.00;99.90
3055;DHT22;1537;52.018;8.542;2022-07-23T19:23:21;22.00;99.90
3055;DHT22;1537;52.018;8.542;2022-07-23T19:26:47;22.00;99.90
3055;DHT22;1537;52.018;8.542;2022-07-23T19:30:13;21.90;99.90
3055;DHT22;1537;52.018;8.542;2022-07-23T19:33:37;21.80;99.90
3055;DHT22;1537;52.018;8.542;2022-07-23T19:37:01;21.80;99.90
3055;DHT22;1537;52.018;8.542;2022-07-23T19:40:25;21.70;99.90
3055;DHT22;1537;52.018;8.542;2022-07-23T19:43:49;21.60;99.90
3055;DHT22;1537;52.018;8.542;2022-07-23T19:47:14;21.60;99.90
3055;DHT22;1537;52.018;8.542;2022-07-23T19:50:39;21.50;99.90
3055;DHT22;1537;52.018;8.542;2022-07-23T19:54:03;21.50;99.90
3055;DHT22;1537;52.018;8.542;2022-07-23T19:57:28;21.40;99.90
3055;DHT22;1537;52.018;8.542;2022-07-23T20:00:59;21.40;99.90
3055;DHT22;1537;52.018;8.542;2022-07-23T20:04:24;21.30;99.90
3055;DHT22;1537;52.018;8.542;2022-07-23T20:07:49;21.20;99.90
3055;DHT22;1537;52.018;8.542;2022-07-23T20:11:13;21.20;99.90
3055;DHT22;1537;52.018;8.542;2022-07-23T20:14:37;21.20;99.90
3055;DHT22;1537;52.018;8.542;2022-07-23T20:18:01;21.10;99.90
3055;DHT22;1537;52.018;8.542;2022-07-23T20:21:26;21.10;99.90
3055;DHT22;1537;52.018;8.542;2022-07-23T20:24:50;21.10;99.90
3055;DHT22;1537;52.018;8.542;2022-07-23T20:28:14;21.00;99.90
3055;DHT22;1537;52.018;8.542;2022-07-23T20:31:40;20.90;99.90
3055;DHT22;1537;52.018;8.542;2022-07-23T20:35:04;20.90;99.90
3055;DHT22;1537;52.018;8.542;2022-07-23T20:38:30;20.70;99.90
3055;DHT22;1537;52.018;8.542;2022-07-23T20:41:54;20.70;99.90
3055;DHT22;1537;52.018;8.542;2022-07-23T20:45:18;20.60;99.90
3055;DHT22;1537;52.018;8.542;2022-07-23T20:48:47;20.50;99.90
3055;DHT22;1537;52.018;8.542;2022-07-23T20:52:12;20.40;99.90
3055;DHT22;1537;52.018;8.542;2022-07-23T20:55:45;20.40;99.90
3055;DHT22;1537;52.018;8.542;2022-07-23T20:59:09;20.30;99.90
3055;DHT22;1537;52.018;8.542;2022-07-23T21:02:33;20.20;99.90
3055;DHT22;1537;52.018;8.542;2022-07-23T21:05:57;20.20;99.90
3055;DHT22;1537;52.018;8.542;2022-07-23T21:09:22;20.20;99.90
3055;DHT22;1537;52.018;8.542;2022-07-23T21:12:47;20.20;99.90
3055;DHT22;1537;52.018;8.542;2022-07-23T21:16:11;20.10;99.90
3055;DHT22;1537;52.018;8.542;2022-07-23T21:19:35;20.00;99.90
3055;DHT22;1537;52.018;8.542;2022-07-23T21:22:59;19.90;99.90
3055;DHT22;1537;52.018;8.542;2022-07-23T21:26:23;19.90;99.90
3055;DHT22;1537;52.018;8.542;2022-07-23T21:29:55;19.80;99.90
3055;DHT22;1537;52.018;8.542;2022-07-23T21:33:19;19.70;99.90
3055;DHT22;1537;52.018;8.542;2022-07-23T21:36:47;19.60;99.90
3055;DHT22;1537;52.018;8.542;2022-07-23T21:40:12;19.50;99.90
3055;DHT22;1537;52.018;8.542;2022-07-23T21:43:36;19.50;99.90
3055;DHT22;1537;52.018;8.542;2022-07-23T21:47:01;19.40;99.90
3055;DHT22;1537;52.018;8.542;2022-07-23T21:50:25;19.30;99.90
3055;DHT22;1537;52.018;8.542;2022-07-23T21:53:48;19.10;99.90
3055;DHT22;1537;52.018;8.542;2022-07-23T21:57:12;19.10;99.90
3055;DHT22;1537;52.018;8.542;2022-07-23T22:00:37;19.10;99.90
3055;DHT22;1537;52.018;8.542;2022-07-23T22:04:02;19.10;99.90
3055;DHT22;1537;52.018;8.542;2022-07-23T22:07:27;19.10;99.90
3055;DHT22;1537;52.018;8.542;2022-07-23T22:10:51;19.00;99.90
3055;DHT22;1537;52.018;8.542;2022-07-23T22:14:15;19.00;99.90
3055;DHT22;1537;52.018;8.542;2022-07-23T22:17:39;18.90;99.90
3055;DHT22;1537;52.018;8.542;2022-07-23T22:21:04;18.80;99.90
3055;DHT22;1537;52.018;8.542;2022-07-23T22:24:48;18.80;99.90
3055;DHT22;1537;52.018;8.542;2022-07-23T22:28:12;18.60;99.90